sensor_id;sensor_type;location;lat;lon;timestamp;P1;durP1;ratioP1;P2;durP2;ratioP2
64684;SDS011;51109;47.414;18.954;2023-06-22T00:02:17;9.57;;;6.70;;
64684;SDS011;51109;47.414;18.954;2023-06-22T00:04:43;17.17;;;7.82;;
64684;SDS011;51109;47.414;18.954;2023-06-22T00:07:09;14.35;;;6.88;;
64684;SDS011;51109;47.414;18.954;2023-06-22T00:09:35;16.52;;;7.32;;
64684;SDS011;51109;47.414;18.954;2023-06-22T00:12:01;14.98;;;8.20;;
64684;SDS011;51109;47.414;18.954;2023-06-22T00:14:27;10.98;;;7.50;;
64684;SDS011;51109;47.414;18.954;2023-06-22T00:16:53;19.40;;;7.68;;
64684;SDS011;51109;47.414;18.954;2023-06-22T00:19:22;11.80;;;7.30;;
64684;SDS011;51109;47.414;18.954;2023-06-22T00:21:49;16.95;;;7.65;;
64684;SDS011;51109;47.414;18.954;2023-06-22T00:24:18;11.35;;;7.75;;
64684;SDS011;51109;47.414;18.954;2023-06-22T00:26:45;15.35;;;7.05;;
64684;SDS011;51109;47.414;18.954;2023-06-22T00:29:11;17.25;;;7.40;;
64684;SDS011;51109;47.414;18.954;2023-06-22T00:31:37;11.15;;;7.85;;
64684;SDS011;51109;47.414;18.954;2023-06-22T00:34:02;12.15;;;8.00;;
64684;SDS011;51109;47.414;18.954;2023-06-22T00:36:28;14.07;;;7.47;;
64684;SDS011;51109;47.414;18.954;2023-06-22T00:38:54;13.93;;;8.23;;
64684;SDS011;51109;47.414;18.954;2023-06-22T00:41:20;14.00;;;7.90;;
64684;SDS011;51109;47.414;18.954;2023-06-22T00:43:45;14.63;;;8.48;;
64684;SDS011;51109;47.414;18.954;2023-06-22T00:46:11;10.30;;;7.57;;
64684;SDS011;51109;47.414;18.954;2023-06-22T00:48:38;13.65;;;8.10;;
64684;SDS011;51109;47.414;18.954;2023-06-22T00:51:05;12.63;;;8.30;;
64684;SDS011;51109;47.414;18.954;2023-06-22T00:53:31;13.27;;;7.97;;
64684;SDS011;51109;47.414;18.954;2023-06-22T00:56:00;12.13;;;7.75;;
64684;SDS011;51109;47.414;18.954;2023-06-22T00:58:28;11.75;;;7.32;;
64684;SDS011;51109;47.414;18.954;2023-06-22T01:00:54;11.32;;;8.43;;
64684;SDS011;51109;47.414;18.954;2023-06-22T01:03:20;16.58;;;8.98;;
64684;SDS011;51109;47.414;18.954;2023-06-22T01:05:46;15.05;;;7.90;;
64684;SDS011;51109;47.414;18.954;2023-06-22T01:16:26;12.57;;;8.57;;
64684;SDS011;51109;47.414;18.954;2023-06-22T01:18:55;12.35;;;9.07;;
64684;SDS011;51109;47.414;18.954;2023-06-22T01:21:42;15.27;;;8.40;;
64684;SDS011;51109;47.414;18.954;2023-06-22T01:29:52;15.00;;;9.13;;
64684;SDS011;51109;47.414;18.954;2023-06-22T01:32:31;16.23;;;8.95;;
64684;SDS011;51109;47.414;18.954;2023-06-22T01:34:58;18.00;;;9.77;;
64684;SDS011;51109;47.414;18.954;2023-06-22T01:37:26;13.30;;;9.52;;
64684;SDS011;51109;47.414;18.954;2023-06-22T01:39:53;15.88;;;9.35;;
64684;SDS011;51109;47.414;18.954;2023-06-22T01:42:22;11.93;;;9.43;;
64684;SDS011;51109;47.414;18.954;2023-06-22T01:44:49;17.17;;;9.55;;
64684;SDS011;51109;47.414;18.954;2023-06-22T01:47:22;16.65;;;9.52;;
64684;SDS011;51109;47.414;18.954;2023-06-22T01:49:49;17.00;;;9.30;;
64684;SDS011;51109;47.414;18.954;2023-06-22T01:52:19;14.70;;;9.07;;
64684;SDS011;51109;47.414;18.954;2023-06-22T01:54:46;17.02;;;9.43;;
64684;SDS011;51109;47.414;18.954;2023-06-22T01:57:12;17.15;;;9.15;;
64684;SDS011;51109;47.414;18.954;2023-06-22T02:02:13;13.57;;;9.38;;
64684;SDS011;51109;47.414;18.954;2023-06-22T02:04:45;17.33;;;10.98;;
64684;SDS011;51109;47.414;18.954;2023-06-22T02:07:14;13.52;;;10.45;;
64684;SDS011;51109;47.414;18.954;2023-06-22T02:09:42;14.88;;;11.05;;
64684;SDS011;51109;47.414;18.954;2023-06-22T02:12:13;16.33;;;10.18;;
64684;SDS011;51109;47.414;18.954;2023-06-22T02:14:44;14.80;;;10.50;;
64684;SDS011;51109;47.414;18.954;2023-06-22T02:17:11;15.00;;;10.73;;
64684;SDS011;51109;47.414;18.954;2023-06-22T02:19:38;18.25;;;10.65;;
64684;SDS011;51109;47.414;18.954;2023-06-22T02:22:06;13.65;;;10.82;;
64684;SDS011;51109;47.414;18.954;2023-06-22T02:24:32;20.63;;;11.32;;
64684;SDS011;51109;47.414;18.954;2023-06-22T02:26:59;18.35;;;10.95;;
64684;SDS011;51109;47.414;18.954;2023-06-22T02:29:25;18.00;;;10.38;;
64684;SDS011;51109;47.414;18.954;2023-06-22T02:31:52;16.08;;;12.27;;
64684;SDS011;51109;47.414;18.954;2023-06-22T02:34:18;18.27;;;11.23;;
64684;SDS011;51109;47.414;18.954;2023-06-22T02:36:48;16.02;;;10.73;;
64684;SDS011;51109;47.414;18.954;2023-06-22T02:39:20;15.73;;;9.67;;
64684;SDS011;51109;47.414;18.954;2023-06-22T02:41:51;15.43;;;9.25;;
64684;SDS011;51109;47.414;18.954;2023-06-22T02:44:19;14.48;;;8.52;;
64684;SDS011;51109;47.414;18.954;2023-06-22T02:46:46;18.65;;;9.85;;
64684;SDS011;51109;47.414;18.954;2023-06-22T02:49:12;12.55;;;8.38;;
64684;SDS011;51109;47.414;18.954;2023-06-22T02:51:41;16.98;;;8.23;;
64684;SDS011;51109;47.414;18.954;2023-06-22T02:54:10;17.50;;;7.70;;
64684;SDS011;51109;47.414;18.954;2023-06-22T02:56:36;16.23;;;7.45;;
64684;SDS011;51109;47.414;18.954;2023-06-22T02:59:02;16.00;;;7.10;;
64684;SDS011;51109;47.414;18.954;2023-06-22T03:01:28;13.90;;;8.65;;
64684;SDS011;51109;47.414;18.954;2023-06-22T03:03:58;11.13;;;7.72;;
64684;SDS011;51109;47.414;18.954;2023-06-22T03:06:25;25.50;;;8.55;;
64684;SDS011;51109;47.414;18.954;2023-06-22T03:08:58;14.77;;;8.70;;
64684;SDS011;51109;47.414;18.954;2023-06-22T03:11:25;15.10;;;8.52;;
64684;SDS011;51109;47.414;18.954;2023-06-22T03:13:52;17.98;;;8.13;;
64684;SDS011;51109;47.414;18.954;2023-06-22T03:16:18;15.48;;;8.35;;
64684;SDS011;51109;47.414;18.954;2023-06-22T03:18:44;15.65;;;8.38;;
64684;SDS011;51109;47.414;18.954;2023-06-22T03:21:10;14.50;;;9.00;;
64684;SDS011;51109;47.414;18.954;2023-06-22T03:23:36;18.45;;;8.50;;
64684;SDS011;51109;47.414;18.954;2023-06-22T03:26:02;15.25;;;8.27;;
64684;SDS011;51109;47.414;18.954;2023-06-22T03:28:29;17.58;;;8.55;;
64684;SDS011;51109;47.414;18.954;2023-06-22T03:30:57;18.75;;;8.50;;
64684;SDS011;51109;47.414;18.954;2023-06-22T03:33:23;14.75;;;8.27;;
64684;SDS011;51109;47.414;18.954;2023-06-22T03:35:49;17.70;;;8.02;;
64684;SDS011;51109;47.414;18.954;2023-06-22T03:38:15;15.23;;;7.63;;
64684;SDS011;51109;47.414;18.954;2023-06-22T03:40:42;15.18;;;8.07;;
64684;SDS011;51109;47.414;18.954;2023-06-22T03:43:08;17.73;;;7.47;;
64684;SDS011;51109;47.414;18.954;2023-06-22T03:45:34;21.90;;;8.27;;
64684;SDS011;51109;47.414;18.954;2023-06-22T03:48:00;16.15;;;6.78;;
64684;SDS011;51109;47.414;18.954;2023-06-22T03:50:26;17.13;;;8.10;;
64684;SDS011;51109;47.414;18.954;2023-06-22T03:52:52;17.15;;;6.93;;
64684;SDS011;51109;47.414;18.954;2023-06-22T03:55:21;14.73;;;7.00;;
64684;SDS011;51109;47.414;18.954;2023-06-22T03:57:47;18.30;;;7.32;;
64684;SDS011;51109;47.414;18.954;2023-06-22T04:00:13;18.25;;;6.82;;
64684;SDS011;51109;47.414;18.954;2023-06-22T04:02:41;14.73;;;7.20;;
64684;SDS011;51109;47.414;18.954;2023-06-22T04:05:08;13.75;;;6.70;;
64684;SDS011;51109;47.414;18.954;2023-06-22T04:07:34;14.90;;;6.78;;
64684;SDS011;51109;47.414;18.954;2023-06-22T04:10:03;17.27;;;7.35;;
64684;SDS011;51109;47.414;18.954;2023-06-22T04:12:29;16.42;;;7.43;;
64684;SDS011;51109;47.414;18.954;2023-06-22T04:14:55;13.95;;;6.90;;
64684;SDS011;51109;47.414;18.954;2023-06-22T04:17:21;14.55;;;7.55;;
64684;SDS011;51109;47.414;18.954;2023-06-22T04:19:50;15.02;;;6.95;;
64684;SDS011;51109;47.414;18.954;2023-06-22T04:22:16;15.13;;;7.15;;
64684;SDS011;51109;47.414;18.954;2023-06-22T04:24:42;11.05;;;7.22;;
64684;SDS011;51109;47.414;18.954;2023-06-22T04:27:09;15.90;;;7.22;;
64684;SDS011;51109;47.414;18.954;2023-06-22T04:29:35;14.52;;;7.60;;
64684;SDS011;51109;47.414;18.954;2023-06-22T04:32:01;13.02;;;6.47;;
64684;SDS011;51109;47.414;18.954;2023-06-22T04:34:30;11.65;;;6.72;;
64684;SDS011;51109;47.414;18.954;2023-06-22T04:36:56;10.93;;;6.25;;
64684;SDS011;51109;47.414;18.954;2023-06-22T04:39:23;16.70;;;7.53;;
64684;SDS011;51109;47.414;18.954;2023-06-22T04:41:49;12.88;;;6.22;;
64684;SDS011;51109;47.414;18.954;2023-06-22T04:44:17;12.02;;;6.95;;
64684;SDS011;51109;47.414;18.954;2023-06-22T04:46:53;16.20;;;7.38;;
64684;SDS011;51109;47.414;18.954;2023-06-22T04:49:25;15.20;;;6.60;;
64684;SDS011;51109;47.414;18.954;2023-06-22T04:51:59;13.52;;;7.07;;
64684;SDS011;51109;47.414;18.954;2023-06-22T04:54:25;18.42;;;7.68;;
64684;SDS011;51109;47.414;18.954;2023-06-22T04:56:51;13.38;;;7.18;;
64684;SDS011;51109;47.414;18.954;2023-06-22T04:59:23;18.50;;;6.88;;
64684;SDS011;51109;47.414;18.954;2023-06-22T05:01:54;13.82;;;7.35;;
64684;SDS011;51109;47.414;18.954;2023-06-22T05:04:24;15.52;;;7.25;;
64684;SDS011;51109;47.414;18.954;2023-06-22T05:06:52;15.27;;;7.68;;
64684;SDS011;51109;47.414;18.954;2023-06-22T05:09:18;14.15;;;7.85;;
64684;SDS011;51109;47.414;18.954;2023-06-22T05:11:44;12.77;;;6.70;;
64684;SDS011;51109;47.414;18.954;2023-06-22T05:14:11;13.00;;;7.20;;
64684;SDS011;51109;47.414;18.954;2023-06-22T05:16:37;11.65;;;7.20;;
64684;SDS011;51109;47.414;18.954;2023-06-22T05:19:03;19.77;;;8.02;;
64684;SDS011;51109;47.414;18.954;2023-06-22T05:21:30;14.52;;;7.57;;
64684;SDS011;51109;47.414;18.954;2023-06-22T05:23:56;16.80;;;7.32;;
64684;SDS011;51109;47.414;18.954;2023-06-22T05:26:29;16.42;;;8.15;;
64684;SDS011;51109;47.414;18.954;2023-06-22T05:28:56;11.85;;;7.10;;
64684;SDS011;51109;47.414;18.954;2023-06-22T05:31:23;15.23;;;7.38;;
64684;SDS011;51109;47.414;18.954;2023-06-22T05:33:49;14.82;;;7.43;;
64684;SDS011;51109;47.414;18.954;2023-06-22T05:36:17;10.57;;;5.85;;
64684;SDS011;51109;47.414;18.954;2023-06-22T05:38:45;12.23;;;6.78;;
64684;SDS011;51109;47.414;18.954;2023-06-22T05:41:11;17.42;;;6.53;;
64684;SDS011;51109;47.414;18.954;2023-06-22T05:43:37;14.65;;;6.32;;
64684;SDS011;51109;47.414;18.954;2023-06-22T05:46:03;17.27;;;6.80;;
64684;SDS011;51109;47.414;18.954;2023-06-22T05:48:29;9.80;;;5.90;;
64684;SDS011;51109;47.414;18.954;2023-06-22T05:50:55;17.40;;;6.72;;
64684;SDS011;51109;47.414;18.954;2023-06-22T05:53:21;14.90;;;5.63;;
64684;SDS011;51109;47.414;18.954;2023-06-22T05:55:47;11.55;;;5.97;;
64684;SDS011;51109;47.414;18.954;2023-06-22T05:58:13;11.95;;;5.10;;
64684;SDS011;51109;47.414;18.954;2023-06-22T06:00:40;12.82;;;5.95;;
64684;SDS011;51109;47.414;18.954;2023-06-22T06:03:06;15.82;;;5.80;;
64684;SDS011;51109;47.414;18.954;2023-06-22T06:05:33;12.88;;;5.10;;
64684;SDS011;51109;47.414;18.954;2023-06-22T06:08:00;13.00;;;5.13;;
64684;SDS011;51109;47.414;18.954;2023-06-22T06:10:27;16.33;;;5.03;;
64684;SDS011;51109;47.414;18.954;2023-06-22T06:12:55;14.43;;;5.63;;
64684;SDS011;51109;47.414;18.954;2023-06-22T06:15:21;13.43;;;5.40;;
64684;SDS011;51109;47.414;18.954;2023-06-22T06:20:14;14.57;;;4.68;;
64684;SDS011;51109;47.414;18.954;2023-06-22T06:22:40;11.02;;;4.43;;
64684;SDS011;51109;47.414;18.954;2023-06-22T06:25:08;11.85;;;4.93;;
64684;SDS011;51109;47.414;18.954;2023-06-22T06:27:34;6.47;;;4.30;;
64684;SDS011;51109;47.414;18.954;2023-06-22T06:29:59;9.30;;;4.00;;
64684;SDS011;51109;47.414;18.954;2023-06-22T06:32:25;11.05;;;5.00;;
64684;SDS011;51109;47.414;18.954;2023-06-22T06:34:51;12.18;;;4.93;;
64684;SDS011;51109;47.414;18.954;2023-06-22T06:37:17;14.07;;;5.57;;
64684;SDS011;51109;47.414;18.954;2023-06-22T06:39:44;12.73;;;5.53;;
64684;SDS011;51109;47.414;18.954;2023-06-22T06:42:10;12.95;;;5.50;;
64684;SDS011;51109;47.414;18.954;2023-06-22T06:44:36;15.65;;;5.20;;
64684;SDS011;51109;47.414;18.954;2023-06-22T06:47:03;10.50;;;4.55;;
64684;SDS011;51109;47.414;18.954;2023-06-22T06:49:29;7.65;;;4.75;;
64684;SDS011;51109;47.414;18.954;2023-06-22T06:51:55;7.82;;;4.22;;
64684;SDS011;51109;47.414;18.954;2023-06-22T06:54:21;8.48;;;4.43;;
64684;SDS011;51109;47.414;18.954;2023-06-22T06:56:50;10.52;;;4.88;;
64684;SDS011;51109;47.414;18.954;2023-06-22T06:59:16;12.52;;;5.45;;
64684;SDS011;51109;47.414;18.954;2023-06-22T07:01:42;10.88;;;5.13;;
64684;SDS011;51109;47.414;18.954;2023-06-22T07:04:09;19.20;;;6.07;;
64684;SDS011;51109;47.414;18.954;2023-06-22T07:06:35;10.48;;;4.88;;
64684;SDS011;51109;47.414;18.954;2023-06-22T07:09:01;14.35;;;5.43;;
64684;SDS011;51109;47.414;18.954;2023-06-22T07:11:28;12.18;;;5.15;;
64684;SDS011;51109;47.414;18.954;2023-06-22T07:13:54;11.27;;;4.97;;
64684;SDS011;51109;47.414;18.954;2023-06-22T07:16:20;10.43;;;4.93;;
64684;SDS011;51109;47.414;18.954;2023-06-22T07:18:46;15.80;;;5.60;;
64684;SDS011;51109;47.414;18.954;2023-06-22T07:21:12;12.35;;;5.25;;
64684;SDS011;51109;47.414;18.954;2023-06-22T07:23:38;11.32;;;5.43;;
64684;SDS011;51109;47.414;18.954;2023-06-22T07:26:03;9.85;;;5.50;;
64684;SDS011;51109;47.414;18.954;2023-06-22T07:28:31;9.88;;;5.85;;
64684;SDS011;51109;47.414;18.954;2023-06-22T07:31:02;7.13;;;5.60;;
64684;SDS011;51109;47.414;18.954;2023-06-22T07:33:29;15.43;;;6.40;;
64684;SDS011;51109;47.414;18.954;2023-06-22T07:35:55;7.68;;;6.15;;
64684;SDS011;51109;47.414;18.954;2023-06-22T07:38:20;10.63;;;6.38;;
64684;SDS011;51109;47.414;18.954;2023-06-22T07:40:46;11.45;;;6.38;;
64684;SDS011;51109;47.414;18.954;2023-06-22T07:43:12;13.68;;;7.57;;
64684;SDS011;51109;47.414;18.954;2023-06-22T07:45:38;13.52;;;7.00;;
64684;SDS011;51109;47.414;18.954;2023-06-22T07:48:06;10.45;;;7.25;;
64684;SDS011;51109;47.414;18.954;2023-06-22T07:50:32;20.77;;;7.68;;
64684;SDS011;51109;47.414;18.954;2023-06-22T07:52:58;12.30;;;8.30;;
64684;SDS011;51109;47.414;18.954;2023-06-22T07:55:24;10.75;;;7.40;;
64684;SDS011;51109;47.414;18.954;2023-06-22T07:57:50;14.60;;;7.28;;
64684;SDS011;51109;47.414;18.954;2023-06-22T08:00:17;9.02;;;7.13;;
64684;SDS011;51109;47.414;18.954;2023-06-22T08:02:44;11.65;;;6.97;;
64684;SDS011;51109;47.414;18.954;2023-06-22T08:05:11;12.35;;;7.55;;
64684;SDS011;51109;47.414;18.954;2023-06-22T08:07:37;11.85;;;7.38;;
64684;SDS011;51109;47.414;18.954;2023-06-22T08:10:04;13.52;;;9.05;;
64684;SDS011;51109;47.414;18.954;2023-06-22T08:12:31;15.98;;;8.35;;
64684;SDS011;51109;47.414;18.954;2023-06-22T08:14:57;11.57;;;8.52;;
64684;SDS011;51109;47.414;18.954;2023-06-22T08:17:23;13.25;;;9.20;;
64684;SDS011;51109;47.414;18.954;2023-06-22T08:19:49;17.17;;;9.90;;
64684;SDS011;51109;47.414;18.954;2023-06-22T08:22:15;11.00;;;8.30;;
64684;SDS011;51109;47.414;18.954;2023-06-22T08:24:42;14.40;;;8.98;;
64684;SDS011;51109;47.414;18.954;2023-06-22T08:27:09;10.77;;;8.35;;
64684;SDS011;51109;47.414;18.954;2023-06-22T08:29:37;14.30;;;8.93;;
64684;SDS011;51109;47.414;18.954;2023-06-22T08:33:39;12.57;;;8.63;;
64684;SDS011;51109;47.414;18.954;2023-06-22T08:36:06;10.82;;;8.00;;
64684;SDS011;51109;47.414;18.954;2023-06-22T08:38:33;9.20;;;8.30;;
64684;SDS011;51109;47.414;18.954;2023-06-22T08:40:59;12.02;;;8.43;;
64684;SDS011;51109;47.414;18.954;2023-06-22T08:43:26;9.63;;;8.63;;
64684;SDS011;51109;47.414;18.954;2023-06-22T08:45:52;9.60;;;8.07;;
64684;SDS011;51109;47.414;18.954;2023-06-22T08:48:17;11.90;;;8.93;;
64684;SDS011;51109;47.414;18.954;2023-06-22T08:50:43;16.35;;;8.20;;
64684;SDS011;51109;47.414;18.954;2023-06-22T08:53:09;12.80;;;8.10;;
64684;SDS011;51109;47.414;18.954;2023-06-22T08:55:35;12.07;;;8.65;;
64684;SDS011;51109;47.414;18.954;2023-06-22T08:58:01;12.73;;;8.88;;
64684;SDS011;51109;47.414;18.954;2023-06-22T09:00:27;9.82;;;8.80;;
64684;SDS011;51109;47.414;18.954;2023-06-22T09:02:54;9.43;;;8.48;;
64684;SDS011;51109;47.414;18.954;2023-06-22T09:05:24;21.95;;;9.95;;
64684;SDS011;51109;47.414;18.954;2023-06-22T09:07:53;11.13;;;8.55;;
64684;SDS011;51109;47.414;18.954;2023-06-22T09:10:21;12.25;;;8.73;;
64684;SDS011;51109;47.414;18.954;2023-06-22T09:12:47;14.40;;;9.75;;
64684;SDS011;51109;47.414;18.954;2023-06-22T09:15:13;13.23;;;9.07;;
64684;SDS011;51109;47.414;18.954;2023-06-22T09:17:40;13.10;;;8.50;;
64684;SDS011;51109;47.414;18.954;2023-06-22T09:20:06;13.02;;;9.10;;
64684;SDS011;51109;47.414;18.954;2023-06-22T09:22:36;10.15;;;8.55;;
64684;SDS011;51109;47.414;18.954;2023-06-22T09:25:02;10.35;;;8.85;;
64684;SDS011;51109;47.414;18.954;2023-06-22T09:27:28;17.40;;;9.80;;
64684;SDS011;51109;47.414;18.954;2023-06-22T09:29:54;12.98;;;9.05;;
64684;SDS011;51109;47.414;18.954;2023-06-22T09:32:20;16.60;;;9.95;;
64684;SDS011;51109;47.414;18.954;2023-06-22T09:34:46;11.57;;;9.75;;
64684;SDS011;51109;47.414;18.954;2023-06-22T09:37:12;16.08;;;9.13;;
64684;SDS011;51109;47.414;18.954;2023-06-22T09:39:38;10.77;;;8.75;;
64684;SDS011;51109;47.414;18.954;2023-06-22T09:42:04;11.25;;;8.80;;
64684;SDS011;51109;47.414;18.954;2023-06-22T09:44:31;13.50;;;9.50;;
64684;SDS011;51109;47.414;18.954;2023-06-22T09:46:57;15.73;;;8.82;;
64684;SDS011;51109;47.414;18.954;2023-06-22T09:49:23;11.15;;;9.30;;
64684;SDS011;51109;47.414;18.954;2023-06-22T09:51:49;12.88;;;9.55;;
64684;SDS011;51109;47.414;18.954;2023-06-22T09:54:16;13.90;;;9.45;;
64684;SDS011;51109;47.414;18.954;2023-06-22T09:56:42;15.48;;;9.55;;
64684;SDS011;51109;47.414;18.954;2023-06-22T09:59:07;12.52;;;8.85;;
64684;SDS011;51109;47.414;18.954;2023-06-22T10:01:33;11.80;;;8.82;;
64684;SDS011;51109;47.414;18.954;2023-06-22T10:03:59;11.45;;;9.43;;
64684;SDS011;51109;47.414;18.954;2023-06-22T10:06:25;12.25;;;9.50;;
64684;SDS011;51109;47.414;18.954;2023-06-22T10:08:51;15.18;;;10.00;;
64684;SDS011;51109;47.414;18.954;2023-06-22T10:11:17;16.55;;;9.85;;
64684;SDS011;51109;47.414;18.954;2023-06-22T10:13:43;15.07;;;9.73;;
64684;SDS011;51109;47.414;18.954;2023-06-22T10:16:09;16.25;;;9.50;;
64684;SDS011;51109;47.414;18.954;2023-06-22T10:18:35;10.52;;;9.43;;
64684;SDS011;51109;47.414;18.954;2023-06-22T10:21:00;11.50;;;9.48;;
64684;SDS011;51109;47.414;18.954;2023-06-22T10:23:26;12.77;;;9.73;;
64684;SDS011;51109;47.414;18.954;2023-06-22T10:25:52;13.48;;;9.23;;
64684;SDS011;51109;47.414;18.954;2023-06-22T10:28:18;11.35;;;9.18;;
64684;SDS011;51109;47.414;18.954;2023-06-22T10:30:44;11.77;;;8.77;;
64684;SDS011;51109;47.414;18.954;2023-06-22T10:33:11;12.65;;;9.13;;
64684;SDS011;51109;47.414;18.954;2023-06-22T10:35:37;12.27;;;9.90;;
64684;SDS011;51109;47.414;18.954;2023-06-22T10:38:03;17.45;;;9.10;;
64684;SDS011;51109;47.414;18.954;2023-06-22T10:40:30;13.50;;;9.05;;
64684;SDS011;51109;47.414;18.954;2023-06-22T10:42:56;11.05;;;9.00;;
64684;SDS011;51109;47.414;18.954;2023-06-22T10:45:22;16.75;;;8.52;;
64684;SDS011;51109;47.414;18.954;2023-06-22T10:47:48;12.60;;;9.20;;
64684;SDS011;51109;47.414;18.954;2023-06-22T10:50:15;14.38;;;9.98;;
64684;SDS011;51109;47.414;18.954;2023-06-22T10:52:41;15.15;;;9.68;;
64684;SDS011;51109;47.414;18.954;2023-06-22T10:55:07;13.38;;;9.25;;
64684;SDS011;51109;47.414;18.954;2023-06-22T10:57:34;22.83;;;9.30;;
64684;SDS011;51109;47.414;18.954;2023-06-22T11:00:00;12.88;;;9.43;;
64684;SDS011;51109;47.414;18.954;2023-06-22T11:02:26;12.15;;;9.35;;
64684;SDS011;51109;47.414;18.954;2023-06-22T11:04:53;14.07;;;9.75;;
64684;SDS011;51109;47.414;18.954;2023-06-22T11:07:19;11.93;;;9.40;;
64684;SDS011;51109;47.414;18.954;2023-06-22T11:09:45;15.93;;;9.23;;
64684;SDS011;51109;47.414;18.954;2023-06-22T11:12:11;17.27;;;9.70;;
64684;SDS011;51109;47.414;18.954;2023-06-22T11:14:38;16.75;;;9.60;;
64684;SDS011;51109;47.414;18.954;2023-06-22T11:17:04;14.23;;;8.38;;
64684;SDS011;51109;47.414;18.954;2023-06-22T11:19:30;14.23;;;9.30;;
64684;SDS011;51109;47.414;18.954;2023-06-22T11:21:56;13.48;;;9.38;;
64684;SDS011;51109;47.414;18.954;2023-06-22T11:24:22;18.10;;;9.23;;
64684;SDS011;51109;47.414;18.954;2023-06-22T11:26:47;18.30;;;10.18;;
64684;SDS011;51109;47.414;18.954;2023-06-22T11:29:13;13.20;;;9.15;;
64684;SDS011;51109;47.414;18.954;2023-06-22T11:31:39;12.52;;;8.80;;
64684;SDS011;51109;47.414;18.954;2023-06-22T11:34:05;12.20;;;8.82;;
64684;SDS011;51109;47.414;18.954;2023-06-22T11:36:31;11.32;;;8.27;;
64684;SDS011;51109;47.414;18.954;2023-06-22T11:39:00;10.43;;;8.20;;
64684;SDS011;51109;47.414;18.954;2023-06-22T11:41:27;17.00;;;8.20;;
64684;SDS011;51109;47.414;18.954;2023-06-22T11:43:53;10.85;;;7.50;;
64684;SDS011;51109;47.414;18.954;2023-06-22T11:46:19;13.20;;;7.97;;
64684;SDS011;51109;47.414;18.954;2023-06-22T11:48:44;15.35;;;8.98;;
64684;SDS011;51109;47.414;18.954;2023-06-22T11:51:10;14.68;;;9.25;;
64684;SDS011;51109;47.414;18.954;2023-06-22T11:53:36;14.45;;;8.68;;
64684;SDS011;51109;47.414;18.954;2023-06-22T11:56:02;14.90;;;7.93;;
64684;SDS011;51109;47.414;18.954;2023-06-22T11:58:28;14.10;;;7.88;;
64684;SDS011;51109;47.414;18.954;2023-06-22T12:00:54;11.52;;;8.57;;
64684;SDS011;51109;47.414;18.954;2023-06-22T12:03:20;13.52;;;8.02;;
64684;SDS011;51109;47.414;18.954;2023-06-22T12:05:52;13.40;;;8.50;;
64684;SDS011;51109;47.414;18.954;2023-06-22T12:08:18;16.60;;;9.75;;
64684;SDS011;51109;47.414;18.954;2023-06-22T12:10:43;13.50;;;8.57;;
64684;SDS011;51109;47.414;18.954;2023-06-22T12:13:09;12.25;;;7.93;;
64684;SDS011;51109;47.414;18.954;2023-06-22T12:15:35;12.73;;;8.15;;
64684;SDS011;51109;47.414;18.954;2023-06-22T12:18:01;12.32;;;9.02;;
64684;SDS011;51109;47.414;18.954;2023-06-22T12:20:28;9.18;;;8.05;;
64684;SDS011;51109;47.414;18.954;2023-06-22T12:22:54;13.88;;;8.18;;
64684;SDS011;51109;47.414;18.954;2023-06-22T12:25:21;13.38;;;8.27;;
64684;SDS011;51109;47.414;18.954;2023-06-22T12:27:47;11.05;;;8.00;;
64684;SDS011;51109;47.414;18.954;2023-06-22T12:30:13;15.43;;;8.57;;
64684;SDS011;51109;47.414;18.954;2023-06-22T12:32:39;11.30;;;7.55;;
64684;SDS011;51109;47.414;18.954;2023-06-22T12:35:05;11.23;;;8.00;;
64684;SDS011;51109;47.414;18.954;2023-06-22T12:37:37;15.57;;;7.80;;
64684;SDS011;51109;47.414;18.954;2023-06-22T12:40:03;13.38;;;8.13;;
64684;SDS011;51109;47.414;18.954;2023-06-22T12:42:30;13.55;;;7.10;;
64684;SDS011;51109;47.414;18.954;2023-06-22T12:44:55;10.77;;;6.40;;
64684;SDS011;51109;47.414;18.954;2023-06-22T12:47:21;14.65;;;8.20;;
64684;SDS011;51109;47.414;18.954;2023-06-22T12:49:47;10.38;;;7.45;;
64684;SDS011;51109;47.414;18.954;2023-06-22T12:52:13;13.40;;;8.07;;
64684;SDS011;51109;47.414;18.954;2023-06-22T12:54:38;11.77;;;7.57;;
64684;SDS011;51109;47.414;18.954;2023-06-22T12:57:04;15.77;;;8.32;;
64684;SDS011;51109;47.414;18.954;2023-06-22T12:59:30;13.25;;;7.60;;
64684;SDS011;51109;47.414;18.954;2023-06-22T13:01:56;11.85;;;7.57;;
64684;SDS011;51109;47.414;18.954;2023-06-22T13:04:22;10.27;;;7.28;;
64684;SDS011;51109;47.414;18.954;2023-06-22T13:06:48;12.90;;;7.53;;
64684;SDS011;51109;47.414;18.954;2023-06-22T13:09:14;12.80;;;7.88;;
64684;SDS011;51109;47.414;18.954;2023-06-22T13:11:41;13.65;;;8.00;;
64684;SDS011;51109;47.414;18.954;2023-06-22T13:14:07;15.73;;;7.90;;
64684;SDS011;51109;47.414;18.954;2023-06-22T13:16:33;13.95;;;7.68;;
64684;SDS011;51109;47.414;18.954;2023-06-22T13:18:59;14.73;;;7.70;;
64684;SDS011;51109;47.414;18.954;2023-06-22T13:21:25;11.10;;;7.72;;
64684;SDS011;51109;47.414;18.954;2023-06-22T13:23:51;14.15;;;8.02;;
64684;SDS011;51109;47.414;18.954;2023-06-22T13:26:16;11.18;;;7.93;;
64684;SDS011;51109;47.414;18.954;2023-06-22T13:28:42;11.73;;;7.72;;
64684;SDS011;51109;47.414;18.954;2023-06-22T13:31:08;13.52;;;9.07;;
64684;SDS011;51109;47.414;18.954;2023-06-22T13:33:34;13.70;;;7.50;;
64684;SDS011;51109;47.414;18.954;2023-06-22T13:36:00;17.23;;;8.75;;
64684;SDS011;51109;47.414;18.954;2023-06-22T13:38:28;13.27;;;8.35;;
64684;SDS011;51109;47.414;18.954;2023-06-22T13:40:55;13.30;;;8.13;;
64684;SDS011;51109;47.414;18.954;2023-06-22T13:43:23;13.55;;;7.97;;
64684;SDS011;51109;47.414;18.954;2023-06-22T13:45:49;16.88;;;8.43;;
64684;SDS011;51109;47.414;18.954;2023-06-22T13:48:15;12.90;;;8.45;;
64684;SDS011;51109;47.414;18.954;2023-06-22T13:50:41;11.27;;;7.93;;
64684;SDS011;51109;47.414;18.954;2023-06-22T13:53:07;12.27;;;8.13;;
64684;SDS011;51109;47.414;18.954;2023-06-22T13:55:32;11.43;;;8.00;;
64684;SDS011;51109;47.414;18.954;2023-06-22T13:57:58;10.07;;;7.95;;
64684;SDS011;51109;47.414;18.954;2023-06-22T14:00:24;13.55;;;8.23;;
64684;SDS011;51109;47.414;18.954;2023-06-22T14:02:50;19.65;;;8.77;;
64684;SDS011;51109;47.414;18.954;2023-06-22T14:05:16;10.60;;;7.50;;
64684;SDS011;51109;47.414;18.954;2023-06-22T14:07:42;11.00;;;7.95;;
64684;SDS011;51109;47.414;18.954;2023-06-22T14:10:08;15.15;;;8.32;;
64684;SDS011;51109;47.414;18.954;2023-06-22T14:12:34;11.50;;;7.85;;
64684;SDS011;51109;47.414;18.954;2023-06-22T14:15:00;13.57;;;8.05;;
64684;SDS011;51109;47.414;18.954;2023-06-22T14:17:26;10.50;;;7.75;;
64684;SDS011;51109;47.414;18.954;2023-06-22T14:19:52;12.75;;;8.27;;
64684;SDS011;51109;47.414;18.954;2023-06-22T14:22:21;11.82;;;8.57;;
64684;SDS011;51109;47.414;18.954;2023-06-22T14:24:47;9.30;;;7.85;;
64684;SDS011;51109;47.414;18.954;2023-06-22T14:27:14;14.30;;;8.00;;
64684;SDS011;51109;47.414;18.954;2023-06-22T14:29:40;10.82;;;8.30;;
64684;SDS011;51109;47.414;18.954;2023-06-22T14:32:07;13.43;;;8.02;;
64684;SDS011;51109;47.414;18.954;2023-06-22T14:34:34;12.15;;;7.97;;
64684;SDS011;51109;47.414;18.954;2023-06-22T14:37:07;12.82;;;8.23;;
64684;SDS011;51109;47.414;18.954;2023-06-22T14:39:35;11.02;;;7.78;;